Elliot Lake, Canada
Current Conditions -  °F | °C
As of 10:27 AM on Wednesday 26 Nov 2014 (Local Time) from CYZE Reporting Station
Overcast Overcast  
Wind Chill: 20°   Ceiling: 3600
Heat Index: 28°   Visibility: 9mi
Dew Point: 21°   Wind: 8mph
Humidity: 74%   Direction: 60°ENE
Pressure: 30.2"   Gusts: NA
Location:  46.38°N, 82.65°W
Report Text: CYZE 261527Z AUTO 06007KT 9SM OVC036 M02/M06 A3020 RMK ICG PAST HR SLP238
Loading
Personal Weather Stations






























Interactive Weather Map New forecast layout! Learn more

10-Day Weather Forecast

Advertisements
Track Severe Weather on mobile